Aviation Digital Data Service (ADDS)

Output produced by TAFs form (1434 UTC 24 July 2017)
found at http://www.aviationweather.gov/adds/tafs/
 
METAR text: RORS 241000Z 29004KT 9999 FEW022 BKN/// 30/25 Q1005
Conditions at: RORS (SHIMOJI-SHIMA IS, JP) observed 1000 UTC 24 July 2017
Temperature: 30.0°C (86°F)
Dewpoint: 25.0°C (77°F) [RH = 75%]
Pressure (altimeter): 29.68 inches Hg (1005.0 mb)
Winds: from the WNW (290 degrees) at 5 MPH (4 knots; 2.1 m/s)
Visibility: 6 or more miles (10+ km)
Ceiling: at least 12,000 feet AGL
Clouds: few clouds at 2200 feet AGL
Weather: no significant weather observed at this time